sensor_id;sensor_type;location;lat;lon;timestamp;P1;durP1;ratioP1;P2;durP2;ratioP2
19965;SDS011;10144;50.874;4.762;2023-04-25T00:02:17;27.27;;;6.27;;
19965;SDS011;10144;50.874;4.762;2023-04-25T00:04:43;27.23;;;5.87;;
19965;SDS011;10144;50.874;4.762;2023-04-25T00:07:12;22.00;;;5.63;;
19965;SDS011;10144;50.874;4.762;2023-04-25T00:09:41;19.73;;;5.57;;
19965;SDS011;10144;50.874;4.762;2023-04-25T00:12:10;23.60;;;5.50;;
19965;SDS011;10144;50.874;4.762;2023-04-25T00:14:35;22.03;;;5.97;;
19965;SDS011;10144;50.874;4.762;2023-04-25T00:17:01;22.20;;;5.50;;
19965;SDS011;10144;50.874;4.762;2023-04-25T00:19:28;24.70;;;5.83;;
19965;SDS011;10144;50.874;4.762;2023-04-25T00:24:57;23.67;;;5.47;;
19965;SDS011;10144;50.874;4.762;2023-04-25T00:27:27;31.30;;;6.20;;
19965;SDS011;10144;50.874;4.762;2023-04-25T00:29:55;22.37;;;5.43;;
19965;SDS011;10144;50.874;4.762;2023-04-25T00:37:30;24.60;;;5.90;;
19965;SDS011;10144;50.874;4.762;2023-04-25T00:40:04;20.57;;;5.37;;
19965;SDS011;10144;50.874;4.762;2023-04-25T00:45:20;24.63;;;5.73;;
19965;SDS011;10144;50.874;4.762;2023-04-25T00:52:47;22.80;;;5.40;;
19965;SDS011;10144;50.874;4.762;2023-04-25T00:55:15;20.40;;;5.20;;
19965;SDS011;10144;50.874;4.762;2023-04-25T00:57:42;17.80;;;5.60;;
19965;SDS011;10144;50.874;4.762;2023-04-25T01:00:14;22.77;;;5.83;;
19965;SDS011;10144;50.874;4.762;2023-04-25T01:02:43;23.73;;;6.20;;
19965;SDS011;10144;50.874;4.762;2023-04-25T01:08:32;19.10;;;5.50;;
19965;SDS011;10144;50.874;4.762;2023-04-25T01:11:00;19.13;;;5.87;;
19965;SDS011;10144;50.874;4.762;2023-04-25T01:13:34;23.77;;;5.63;;
19965;SDS011;10144;50.874;4.762;2023-04-25T01:18:58;28.20;;;6.37;;
19965;SDS011;10144;50.874;4.762;2023-04-25T01:21:26;30.83;;;6.20;;
19965;SDS011;10144;50.874;4.762;2023-04-25T01:23:54;31.93;;;6.70;;
19965;SDS011;10144;50.874;4.762;2023-04-25T01:29:07;24.90;;;5.93;;
19965;SDS011;10144;50.874;4.762;2023-04-25T01:31:36;30.23;;;6.80;;
19965;SDS011;10144;50.874;4.762;2023-04-25T01:34:08;25.37;;;6.50;;
19965;SDS011;10144;50.874;4.762;2023-04-25T01:36:35;27.33;;;6.57;;
19965;SDS011;10144;50.874;4.762;2023-04-25T01:44:36;28.93;;;7.17;;
19965;SDS011;10144;50.874;4.762;2023-04-25T01:47:02;28.70;;;6.80;;
19965;SDS011;10144;50.874;4.762;2023-04-25T01:49:35;32.97;;;6.77;;
19965;SDS011;10144;50.874;4.762;2023-04-25T01:52:06;31.17;;;7.33;;
19965;SDS011;10144;50.874;4.762;2023-04-25T01:57:35;26.77;;;6.57;;
19965;SDS011;10144;50.874;4.762;2023-04-25T02:05:48;29.03;;;6.93;;
19965;SDS011;10144;50.874;4.762;2023-04-25T02:08:25;30.13;;;6.93;;
19965;SDS011;10144;50.874;4.762;2023-04-25T02:10:58;27.03;;;6.73;;
19965;SDS011;10144;50.874;4.762;2023-04-25T02:18:58;28.13;;;6.23;;
19965;SDS011;10144;50.874;4.762;2023-04-25T02:21:37;27.00;;;7.63;;
19965;SDS011;10144;50.874;4.762;2023-04-25T02:26:35;31.87;;;6.47;;
19965;SDS011;10144;50.874;4.762;2023-04-25T02:31:53;27.37;;;5.77;;
19965;SDS011;10144;50.874;4.762;2023-04-25T02:34:22;26.87;;;6.50;;
19965;SDS011;10144;50.874;4.762;2023-04-25T02:39:20;24.87;;;5.83;;
19965;SDS011;10144;50.874;4.762;2023-04-25T02:50:11;26.27;;;5.37;;
19965;SDS011;10144;50.874;4.762;2023-04-25T02:52:42;23.43;;;5.60;;
19965;SDS011;10144;50.874;4.762;2023-04-25T02:55:14;27.23;;;5.83;;
19965;SDS011;10144;50.874;4.762;2023-04-25T03:00:45;26.70;;;5.60;;
19965;SDS011;10144;50.874;4.762;2023-04-25T03:03:14;28.40;;;6.07;;
19965;SDS011;10144;50.874;4.762;2023-04-25T03:05:42;23.13;;;5.03;;
19965;SDS011;10144;50.874;4.762;2023-04-25T03:08:12;30.87;;;5.80;;
19965;SDS011;10144;50.874;4.762;2023-04-25T03:14:03;25.83;;;5.40;;
19965;SDS011;10144;50.874;4.762;2023-04-25T03:16:32;31.83;;;5.90;;
19965;SDS011;10144;50.874;4.762;2023-04-25T03:21:30;30.90;;;6.03;;
19965;SDS011;10144;50.874;4.762;2023-04-25T03:24:03;32.13;;;5.60;;
19965;SDS011;10144;50.874;4.762;2023-04-25T03:26:31;20.83;;;5.60;;
19965;SDS011;10144;50.874;4.762;2023-04-25T03:29:02;25.93;;;5.33;;
19965;SDS011;10144;50.874;4.762;2023-04-25T03:31:31;27.77;;;5.30;;
19965;SDS011;10144;50.874;4.762;2023-04-25T03:33:57;28.63;;;5.77;;
19965;SDS011;10144;50.874;4.762;2023-04-25T03:36:25;24.00;;;5.47;;
19965;SDS011;10144;50.874;4.762;2023-04-25T03:38:52;30.10;;;5.63;;
19965;SDS011;10144;50.874;4.762;2023-04-25T03:41:19;24.07;;;5.87;;
19965;SDS011;10144;50.874;4.762;2023-04-25T03:43:51;22.53;;;5.13;;
19965;SDS011;10144;50.874;4.762;2023-04-25T03:46:20;19.77;;;4.93;;
19965;SDS011;10144;50.874;4.762;2023-04-25T03:48:56;24.73;;;5.07;;
19965;SDS011;10144;50.874;4.762;2023-04-25T03:51:25;22.87;;;5.53;;
19965;SDS011;10144;50.874;4.762;2023-04-25T03:53:54;36.23;;;5.70;;
19965;SDS011;10144;50.874;4.762;2023-04-25T03:56:22;27.93;;;5.40;;
19965;SDS011;10144;50.874;4.762;2023-04-25T03:58:51;21.27;;;5.03;;
19965;SDS011;10144;50.874;4.762;2023-04-25T04:01:20;27.23;;;5.43;;
19965;SDS011;10144;50.874;4.762;2023-04-25T04:03:46;25.90;;;5.73;;
19965;SDS011;10144;50.874;4.762;2023-04-25T04:06:16;30.37;;;4.87;;
19965;SDS011;10144;50.874;4.762;2023-04-25T04:11:17;26.97;;;5.00;;
19965;SDS011;10144;50.874;4.762;2023-04-25T04:13:43;24.40;;;4.93;;
19965;SDS011;10144;50.874;4.762;2023-04-25T04:16:15;26.87;;;4.87;;
19965;SDS011;10144;50.874;4.762;2023-04-25T04:21:12;22.90;;;4.80;;
19965;SDS011;10144;50.874;4.762;2023-04-25T04:23:44;33.83;;;5.27;;
19965;SDS011;10144;50.874;4.762;2023-04-25T04:28:45;18.33;;;4.97;;
19965;SDS011;10144;50.874;4.762;2023-04-25T04:31:12;20.40;;;5.23;;
19965;SDS011;10144;50.874;4.762;2023-04-25T04:33:41;23.10;;;5.13;;
19965;SDS011;10144;50.874;4.762;2023-04-25T04:36:16;24.27;;;5.23;;
19965;SDS011;10144;50.874;4.762;2023-04-25T04:38:49;24.03;;;5.10;;
19965;SDS011;10144;50.874;4.762;2023-04-25T04:44:19;28.97;;;5.00;;
19965;SDS011;10144;50.874;4.762;2023-04-25T04:46:56;24.93;;;5.13;;
19965;SDS011;10144;50.874;4.762;2023-04-25T04:54:22;17.63;;;4.33;;
19965;SDS011;10144;50.874;4.762;2023-04-25T04:56:51;24.57;;;5.07;;
19965;SDS011;10144;50.874;4.762;2023-04-25T05:01:48;23.73;;;5.17;;
19965;SDS011;10144;50.874;4.762;2023-04-25T05:04:15;26.63;;;5.07;;
19965;SDS011;10144;50.874;4.762;2023-04-25T05:06:43;25.70;;;5.07;;
19965;SDS011;10144;50.874;4.762;2023-04-25T05:09:10;19.70;;;4.80;;
19965;SDS011;10144;50.874;4.762;2023-04-25T05:11:37;18.57;;;4.93;;
19965;SDS011;10144;50.874;4.762;2023-04-25T05:14:03;23.07;;;4.80;;
19965;SDS011;10144;50.874;4.762;2023-04-25T05:16:28;28.97;;;5.97;;
19965;SDS011;10144;50.874;4.762;2023-04-25T05:18:55;28.07;;;5.47;;
19965;SDS011;10144;50.874;4.762;2023-04-25T05:21:20;23.53;;;5.33;;
19965;SDS011;10144;50.874;4.762;2023-04-25T05:23:46;23.50;;;5.50;;
19965;SDS011;10144;50.874;4.762;2023-04-25T05:26:13;22.97;;;5.40;;
19965;SDS011;10144;50.874;4.762;2023-04-25T05:31:11;19.17;;;5.20;;
19965;SDS011;10144;50.874;4.762;2023-04-25T05:33:38;21.93;;;5.20;;
19965;SDS011;10144;50.874;4.762;2023-04-25T05:36:05;24.47;;;5.50;;
19965;SDS011;10144;50.874;4.762;2023-04-25T05:38:31;23.47;;;5.50;;
19965;SDS011;10144;50.874;4.762;2023-04-25T05:40:57;31.50;;;6.33;;
19965;SDS011;10144;50.874;4.762;2023-04-25T05:43:23;24.43;;;5.73;;
19965;SDS011;10144;50.874;4.762;2023-04-25T05:45:49;25.43;;;5.80;;
19965;SDS011;10144;50.874;4.762;2023-04-25T05:48:15;22.43;;;5.67;;
19965;SDS011;10144;50.874;4.762;2023-04-25T05:50:42;33.13;;;6.20;;
19965;SDS011;10144;50.874;4.762;2023-04-25T05:53:08;27.97;;;6.13;;
19965;SDS011;10144;50.874;4.762;2023-04-25T05:55:37;29.30;;;6.33;;
19965;SDS011;10144;50.874;4.762;2023-04-25T05:58:06;27.30;;;6.60;;
19965;SDS011;10144;50.874;4.762;2023-04-25T06:00:35;30.77;;;5.83;;
19965;SDS011;10144;50.874;4.762;2023-04-25T06:05:37;28.00;;;7.00;;
19965;SDS011;10144;50.874;4.762;2023-04-25T06:08:09;31.60;;;6.30;;
19965;SDS011;10144;50.874;4.762;2023-04-25T06:13:18;24.97;;;6.07;;
19965;SDS011;10144;50.874;4.762;2023-04-25T06:18:21;32.93;;;6.30;;
19965;SDS011;10144;50.874;4.762;2023-04-25T06:23:19;20.20;;;6.13;;
19965;SDS011;10144;50.874;4.762;2023-04-25T06:25:45;23.20;;;6.07;;
19965;SDS011;10144;50.874;4.762;2023-04-25T06:28:11;31.37;;;6.27;;
19965;SDS011;10144;50.874;4.762;2023-04-25T06:30:37;31.30;;;6.97;;
19965;SDS011;10144;50.874;4.762;2023-04-25T06:33:02;24.33;;;6.00;;
19965;SDS011;10144;50.874;4.762;2023-04-25T06:35:28;25.83;;;6.50;;
19965;SDS011;10144;50.874;4.762;2023-04-25T06:37:56;28.47;;;6.93;;
19965;SDS011;10144;50.874;4.762;2023-04-25T06:40:22;32.07;;;6.90;;
19965;SDS011;10144;50.874;4.762;2023-04-25T06:42:49;25.10;;;6.20;;
19965;SDS011;10144;50.874;4.762;2023-04-25T06:45:15;30.43;;;6.60;;
19965;SDS011;10144;50.874;4.762;2023-04-25T06:47:41;24.70;;;7.07;;
19965;SDS011;10144;50.874;4.762;2023-04-25T06:50:08;28.80;;;6.50;;
19965;SDS011;10144;50.874;4.762;2023-04-25T06:52:34;24.97;;;5.87;;
19965;SDS011;10144;50.874;4.762;2023-04-25T06:55:01;29.13;;;6.43;;
19965;SDS011;10144;50.874;4.762;2023-04-25T06:57:27;32.40;;;5.80;;
19965;SDS011;10144;50.874;4.762;2023-04-25T06:59:54;21.00;;;5.27;;
19965;SDS011;10144;50.874;4.762;2023-04-25T07:02:20;26.03;;;5.77;;
19965;SDS011;10144;50.874;4.762;2023-04-25T07:04:47;22.43;;;5.50;;
19965;SDS011;10144;50.874;4.762;2023-04-25T07:07:14;20.70;;;5.70;;
19965;SDS011;10144;50.874;4.762;2023-04-25T07:09:40;29.60;;;5.63;;
19965;SDS011;10144;50.874;4.762;2023-04-25T07:12:06;27.73;;;5.43;;
19965;SDS011;10144;50.874;4.762;2023-04-25T07:14:32;24.87;;;5.63;;
19965;SDS011;10144;50.874;4.762;2023-04-25T07:16:57;25.27;;;5.00;;
19965;SDS011;10144;50.874;4.762;2023-04-25T07:19:23;22.40;;;5.10;;
19965;SDS011;10144;50.874;4.762;2023-04-25T07:21:51;24.30;;;5.40;;
19965;SDS011;10144;50.874;4.762;2023-04-25T07:24:17;19.37;;;5.40;;
19965;SDS011;10144;50.874;4.762;2023-04-25T07:26:43;35.53;;;5.13;;
19965;SDS011;10144;50.874;4.762;2023-04-25T07:29:10;17.57;;;4.57;;
19965;SDS011;10144;50.874;4.762;2023-04-25T07:31:36;24.03;;;5.27;;
19965;SDS011;10144;50.874;4.762;2023-04-25T07:34:05;17.23;;;5.03;;
19965;SDS011;10144;50.874;4.762;2023-04-25T07:36:32;23.60;;;5.07;;
19965;SDS011;10144;50.874;4.762;2023-04-25T07:38:58;20.03;;;4.93;;
19965;SDS011;10144;50.874;4.762;2023-04-25T07:41:24;25.83;;;5.27;;
19965;SDS011;10144;50.874;4.762;2023-04-25T07:43:51;23.40;;;4.80;;
19965;SDS011;10144;50.874;4.762;2023-04-25T07:46:16;18.27;;;4.33;;
19965;SDS011;10144;50.874;4.762;2023-04-25T07:48:43;23.80;;;4.53;;
19965;SDS011;10144;50.874;4.762;2023-04-25T07:51:09;16.83;;;4.50;;
19965;SDS011;10144;50.874;4.762;2023-04-25T07:53:38;14.90;;;3.70;;
19965;SDS011;10144;50.874;4.762;2023-04-25T07:56:04;13.90;;;4.20;;
19965;SDS011;10144;50.874;4.762;2023-04-25T07:58:30;24.67;;;4.50;;
19965;SDS011;10144;50.874;4.762;2023-04-25T08:00:56;19.57;;;3.30;;
19965;SDS011;10144;50.874;4.762;2023-04-25T08:03:23;21.03;;;3.80;;
19965;SDS011;10144;50.874;4.762;2023-04-25T08:05:49;23.27;;;3.83;;
19965;SDS011;10144;50.874;4.762;2023-04-25T08:08:15;22.27;;;3.90;;
19965;SDS011;10144;50.874;4.762;2023-04-25T08:10:42;17.37;;;4.20;;
19965;SDS011;10144;50.874;4.762;2023-04-25T08:13:08;19.80;;;3.63;;
19965;SDS011;10144;50.874;4.762;2023-04-25T08:15:33;16.30;;;3.47;;
19965;SDS011;10144;50.874;4.762;2023-04-25T08:18:00;18.50;;;3.87;;
19965;SDS011;10144;50.874;4.762;2023-04-25T08:20:27;18.57;;;4.00;;
19965;SDS011;10144;50.874;4.762;2023-04-25T08:22:54;21.00;;;4.17;;
19965;SDS011;10144;50.874;4.762;2023-04-25T08:25:19;12.37;;;3.63;;
19965;SDS011;10144;50.874;4.762;2023-04-25T08:27:46;20.17;;;3.90;;
19965;SDS011;10144;50.874;4.762;2023-04-25T08:30:12;18.00;;;4.10;;
19965;SDS011;10144;50.874;4.762;2023-04-25T08:32:40;20.73;;;3.87;;
19965;SDS011;10144;50.874;4.762;2023-04-25T08:35:05;14.47;;;3.77;;
19965;SDS011;10144;50.874;4.762;2023-04-25T08:37:31;12.37;;;3.67;;
19965;SDS011;10144;50.874;4.762;2023-04-25T08:39:57;17.63;;;3.60;;
19965;SDS011;10144;50.874;4.762;2023-04-25T08:42:24;18.67;;;3.50;;
19965;SDS011;10144;50.874;4.762;2023-04-25T08:44:52;20.07;;;4.10;;
19965;SDS011;10144;50.874;4.762;2023-04-25T08:47:20;13.33;;;3.37;;
19965;SDS011;10144;50.874;4.762;2023-04-25T08:49:47;12.03;;;3.23;;
19965;SDS011;10144;50.874;4.762;2023-04-25T08:52:15;20.07;;;3.20;;
19965;SDS011;10144;50.874;4.762;2023-04-25T08:54:46;19.53;;;3.10;;
19965;SDS011;10144;50.874;4.762;2023-04-25T08:57:15;18.00;;;3.63;;
19965;SDS011;10144;50.874;4.762;2023-04-25T08:59:45;12.53;;;3.43;;
19965;SDS011;10144;50.874;4.762;2023-04-25T09:02:12;16.27;;;3.20;;
19965;SDS011;10144;50.874;4.762;2023-04-25T09:04:43;18.43;;;3.43;;
19965;SDS011;10144;50.874;4.762;2023-04-25T09:07:09;14.93;;;2.83;;
19965;SDS011;10144;50.874;4.762;2023-04-25T09:09:35;18.33;;;3.10;;
19965;SDS011;10144;50.874;4.762;2023-04-25T09:12:01;17.07;;;3.40;;
19965;SDS011;10144;50.874;4.762;2023-04-25T09:14:28;15.70;;;3.00;;
19965;SDS011;10144;50.874;4.762;2023-04-25T09:16:57;13.43;;;3.03;;
19965;SDS011;10144;50.874;4.762;2023-04-25T09:19:27;13.52;;;3.03;;
19965;SDS011;10144;50.874;4.762;2023-04-25T09:21:57;16.08;;;2.97;;
19965;SDS011;10144;50.874;4.762;2023-04-25T09:24:38;13.73;;;2.70;;
19965;SDS011;10144;50.874;4.762;2023-04-25T09:27:18;9.55;;;2.13;;
19965;SDS011;10144;50.874;4.762;2023-04-25T09:29:45;12.55;;;2.50;;
19965;SDS011;10144;50.874;4.762;2023-04-25T09:32:12;14.57;;;2.55;;
19965;SDS011;10144;50.874;4.762;2023-04-25T09:34:44;12.88;;;2.83;;
19965;SDS011;10144;50.874;4.762;2023-04-25T09:37:17;14.75;;;3.00;;
19965;SDS011;10144;50.874;4.762;2023-04-25T09:39:45;15.32;;;3.10;;
19965;SDS011;10144;50.874;4.762;2023-04-25T09:42:15;13.23;;;2.53;;
19965;SDS011;10144;50.874;4.762;2023-04-25T09:44:42;8.98;;;2.53;;
19965;SDS011;10144;50.874;4.762;2023-04-25T09:47:10;8.27;;;2.40;;
19965;SDS011;10144;50.874;4.762;2023-04-25T09:49:39;11.23;;;2.63;;
19965;SDS011;10144;50.874;4.762;2023-04-25T09:52:07;14.43;;;2.40;;
19965;SDS011;10144;50.874;4.762;2023-04-25T09:54:33;14.33;;;3.90;;
19965;SDS011;10144;50.874;4.762;2023-04-25T09:56:59;11.17;;;2.40;;
19965;SDS011;10144;50.874;4.762;2023-04-25T09:59:36;11.83;;;2.60;;
19965;SDS011;10144;50.874;4.762;2023-04-25T10:02:06;16.40;;;2.53;;
19965;SDS011;10144;50.874;4.762;2023-04-25T10:04:34;9.67;;;2.80;;
19965;SDS011;10144;50.874;4.762;2023-04-25T10:07:03;12.07;;;2.30;;
19965;SDS011;10144;50.874;4.762;2023-04-25T10:09:31;12.33;;;2.50;;
19965;SDS011;10144;50.874;4.762;2023-04-25T10:12:00;12.00;;;2.43;;
19965;SDS011;10144;50.874;4.762;2023-04-25T10:14:26;11.33;;;2.00;;
19965;SDS011;10144;50.874;4.762;2023-04-25T10:16:54;10.27;;;2.00;;
19965;SDS011;10144;50.874;4.762;2023-04-25T10:24:57;7.05;;;1.30;;
19965;SDS011;10144;50.874;4.762;2023-04-25T10:27:24;7.45;;;1.42;;
19965;SDS011;10144;50.874;4.762;2023-04-25T10:30:08;4.18;;;1.25;;
19965;SDS011;10144;50.874;4.762;2023-04-25T10:32:41;5.78;;;1.20;;
19965;SDS011;10144;50.874;4.762;2023-04-25T10:35:22;4.57;;;1.23;;
19965;SDS011;10144;50.874;4.762;2023-04-25T10:37:56;4.28;;;1.25;;
19965;SDS011;10144;50.874;4.762;2023-04-25T10:40:30;4.88;;;1.45;;
19965;SDS011;10144;50.874;4.762;2023-04-25T10:46:00;6.22;;;1.17;;
19965;SDS011;10144;50.874;4.762;2023-04-25T10:48:26;3.65;;;1.30;;
19965;SDS011;10144;50.874;4.762;2023-04-25T10:51:39;8.20;;;1.40;;
19965;SDS011;10144;50.874;4.762;2023-04-25T10:56:39;4.13;;;1.35;;
19965;SDS011;10144;50.874;4.762;2023-04-25T10:59:10;4.13;;;1.25;;
19965;SDS011;10144;50.874;4.762;2023-04-25T11:04:03;6.43;;;1.45;;
19965;SDS011;10144;50.874;4.762;2023-04-25T11:06:37;5.38;;;1.20;;
19965;SDS011;10144;50.874;4.762;2023-04-25T11:09:16;7.80;;;1.50;;
19965;SDS011;10144;50.874;4.762;2023-04-25T11:11:42;8.75;;;1.58;;
19965;SDS011;10144;50.874;4.762;2023-04-25T11:14:09;5.22;;;1.63;;
19965;SDS011;10144;50.874;4.762;2023-04-25T11:16:34;7.20;;;1.48;;
19965;SDS011;10144;50.874;4.762;2023-04-25T11:19:01;8.55;;;1.50;;
19965;SDS011;10144;50.874;4.762;2023-04-25T11:21:27;8.25;;;1.55;;
19965;SDS011;10144;50.874;4.762;2023-04-25T11:23:53;9.15;;;1.65;;
19965;SDS011;10144;50.874;4.762;2023-04-25T11:26:21;7.50;;;1.70;;
19965;SDS011;10144;50.874;4.762;2023-04-25T11:28:47;8.88;;;2.00;;
19965;SDS011;10144;50.874;4.762;2023-04-25T11:31:14;6.25;;;1.63;;
19965;SDS011;10144;50.874;4.762;2023-04-25T11:33:40;7.88;;;1.65;;
19965;SDS011;10144;50.874;4.762;2023-04-25T11:36:06;7.93;;;1.80;;
19965;SDS011;10144;50.874;4.762;2023-04-25T11:38:32;6.40;;;1.65;;
19965;SDS011;10144;50.874;4.762;2023-04-25T11:40:57;7.68;;;1.83;;
19965;SDS011;10144;50.874;4.762;2023-04-25T11:43:23;6.68;;;1.70;;
19965;SDS011;10144;50.874;4.762;2023-04-25T11:45:50;9.98;;;2.05;;
19965;SDS011;10144;50.874;4.762;2023-04-25T11:48:17;11.25;;;2.00;;
19965;SDS011;10144;50.874;4.762;2023-04-25T11:50:43;5.20;;;1.50;;
19965;SDS011;10144;50.874;4.762;2023-04-25T11:53:10;4.60;;;1.73;;
19965;SDS011;10144;50.874;4.762;2023-04-25T11:55:35;6.25;;;1.70;;
19965;SDS011;10144;50.874;4.762;2023-04-25T11:58:02;4.55;;;1.77;;
19965;SDS011;10144;50.874;4.762;2023-04-25T12:00:29;10.48;;;1.92;;
19965;SDS011;10144;50.874;4.762;2023-04-25T12:02:55;10.88;;;1.98;;
19965;SDS011;10144;50.874;4.762;2023-04-25T12:05:27;8.48;;;1.95;;
19965;SDS011;10144;50.874;4.762;2023-04-25T12:07:56;9.00;;;2.13;;
19965;SDS011;10144;50.874;4.762;2023-04-25T12:10:23;9.02;;;2.60;;
19965;SDS011;10144;50.874;4.762;2023-04-25T12:12:51;4.80;;;1.55;;
19965;SDS011;10144;50.874;4.762;2023-04-25T12:15:18;18.10;;;5.07;;
19965;SDS011;10144;50.874;4.762;2023-04-25T12:17:49;7.40;;;1.90;;
19965;SDS011;10144;50.874;4.762;2023-04-25T12:20:17;8.43;;;2.10;;
19965;SDS011;10144;50.874;4.762;2023-04-25T12:22:46;8.67;;;1.70;;
19965;SDS011;10144;50.874;4.762;2023-04-25T12:25:20;6.27;;;1.53;;
19965;SDS011;10144;50.874;4.762;2023-04-25T12:28:11;5.67;;;1.63;;
19965;SDS011;10144;50.874;4.762;2023-04-25T12:33:27;6.63;;;1.63;;
19965;SDS011;10144;50.874;4.762;2023-04-25T12:35:54;11.32;;;2.22;;
19965;SDS011;10144;50.874;4.762;2023-04-25T12:38:21;10.23;;;2.08;;
19965;SDS011;10144;50.874;4.762;2023-04-25T12:40:48;8.23;;;1.60;;
19965;SDS011;10144;50.874;4.762;2023-04-25T12:43:14;8.48;;;2.33;;
19965;SDS011;10144;50.874;4.762;2023-04-25T12:45:40;9.13;;;2.15;;
19965;SDS011;10144;50.874;4.762;2023-04-25T12:48:05;10.60;;;2.08;;
19965;SDS011;10144;50.874;4.762;2023-04-25T12:50:31;7.93;;;2.03;;
19965;SDS011;10144;50.874;4.762;2023-04-25T12:52:57;7.35;;;2.03;;
19965;SDS011;10144;50.874;4.762;2023-04-25T12:55:22;5.22;;;1.85;;
19965;SDS011;10144;50.874;4.762;2023-04-25T12:57:48;4.43;;;1.70;;
19965;SDS011;10144;50.874;4.762;2023-04-25T13:00:14;8.50;;;2.05;;
19965;SDS011;10144;50.874;4.762;2023-04-25T13:02:43;6.88;;;2.10;;
19965;SDS011;10144;50.874;4.762;2023-04-25T13:05:08;6.20;;;2.03;;
19965;SDS011;10144;50.874;4.762;2023-04-25T13:07:34;8.00;;;1.92;;
19965;SDS011;10144;50.874;4.762;2023-04-25T13:09:59;5.45;;;1.77;;
19965;SDS011;10144;50.874;4.762;2023-04-25T13:12:27;4.40;;;1.52;;
19965;SDS011;10144;50.874;4.762;2023-04-25T13:14:53;7.10;;;1.45;;
19965;SDS011;10144;50.874;4.762;2023-04-25T13:17:18;3.10;;;1.20;;
19965;SDS011;10144;50.874;4.762;2023-04-25T13:19:44;4.32;;;1.33;;
19965;SDS011;10144;50.874;4.762;2023-04-25T13:22:10;7.90;;;2.08;;
19965;SDS011;10144;50.874;4.762;2023-04-25T13:24:36;5.17;;;1.30;;
19965;SDS011;10144;50.874;4.762;2023-04-25T13:27:01;4.93;;;1.55;;
19965;SDS011;10144;50.874;4.762;2023-04-25T13:29:27;3.40;;;1.10;;
19965;SDS011;10144;50.874;4.762;2023-04-25T13:31:53;5.33;;;1.47;;
19965;SDS011;10144;50.874;4.762;2023-04-25T13:34:19;6.97;;;1.50;;
19965;SDS011;10144;50.874;4.762;2023-04-25T13:36:45;8.20;;;1.83;;
19965;SDS011;10144;50.874;4.762;2023-04-25T13:39:11;6.25;;;1.42;;
19965;SDS011;10144;50.874;4.762;2023-04-25T13:41:37;5.30;;;1.38;;
19965;SDS011;10144;50.874;4.762;2023-04-25T13:44:02;6.65;;;1.30;;
19965;SDS011;10144;50.874;4.762;2023-04-25T13:46:28;8.65;;;1.38;;
19965;SDS011;10144;50.874;4.762;2023-04-25T13:48:54;5.75;;;1.45;;
19965;SDS011;10144;50.874;4.762;2023-04-25T13:51:19;8.45;;;1.55;;
19965;SDS011;10144;50.874;4.762;2023-04-25T13:53:48;10.90;;;1.77;;
19965;SDS011;10144;50.874;4.762;2023-04-25T13:56:13;7.00;;;1.30;;
19965;SDS011;10144;50.874;4.762;2023-04-25T13:58:39;7.07;;;1.83;;
19965;SDS011;10144;50.874;4.762;2023-04-25T14:01:05;6.97;;;1.60;;
19965;SDS011;10144;50.874;4.762;2023-04-25T14:03:30;5.78;;;1.50;;
19965;SDS011;10144;50.874;4.762;2023-04-25T14:05:56;4.18;;;1.33;;
19965;SDS011;10144;50.874;4.762;2023-04-25T14:08:22;5.32;;;1.50;;
19965;SDS011;10144;50.874;4.762;2023-04-25T14:10:48;11.35;;;1.48;;
19965;SDS011;10144;50.874;4.762;2023-04-25T14:13:13;5.90;;;1.35;;
19965;SDS011;10144;50.874;4.762;2023-04-25T14:15:40;6.10;;;1.60;;
19965;SDS011;10144;50.874;4.762;2023-04-25T14:18:05;6.95;;;1.35;;
19965;SDS011;10144;50.874;4.762;2023-04-25T14:20:31;6.93;;;1.30;;
19965;SDS011;10144;50.874;4.762;2023-04-25T14:22:57;5.77;;;1.37;;
19965;SDS011;10144;50.874;4.762;2023-04-25T14:25:23;6.57;;;1.40;;
19965;SDS011;10144;50.874;4.762;2023-04-25T14:27:49;4.90;;;1.60;;
19965;SDS011;10144;50.874;4.762;2023-04-25T14:30:16;5.33;;;1.33;;
19965;SDS011;10144;50.874;4.762;2023-04-25T14:32:43;7.37;;;1.40;;
19965;SDS011;10144;50.874;4.762;2023-04-25T14:35:09;7.23;;;1.53;;
19965;SDS011;10144;50.874;4.762;2023-04-25T14:37:35;7.67;;;1.33;;
19965;SDS011;10144;50.874;4.762;2023-04-25T14:40:00;6.00;;;1.60;;
19965;SDS011;10144;50.874;4.762;2023-04-25T14:42:26;3.43;;;1.23;;
19965;SDS011;10144;50.874;4.762;2023-04-25T14:44:52;6.67;;;1.27;;
19965;SDS011;10144;50.874;4.762;2023-04-25T14:47:18;6.30;;;1.33;;
19965;SDS011;10144;50.874;4.762;2023-04-25T14:49:44;4.83;;;1.50;;
19965;SDS011;10144;50.874;4.762;2023-04-25T14:52:16;6.63;;;1.40;;
19965;SDS011;10144;50.874;4.762;2023-04-25T14:54:41;8.10;;;1.67;;
19965;SDS011;10144;50.874;4.762;2023-04-25T14:57:07;4.30;;;1.10;;
19965;SDS011;10144;50.874;4.762;2023-04-25T14:59:32;5.77;;;1.40;;
19965;SDS011;10144;50.874;4.762;2023-04-25T15:01:58;9.07;;;1.60;;
19965;SDS011;10144;50.874;4.762;2023-04-25T15:04:24;7.97;;;1.60;;
19965;SDS011;10144;50.874;4.762;2023-04-25T15:06:49;4.47;;;1.33;;
19965;SDS011;10144;50.874;4.762;2023-04-25T15:09:16;3.70;;;1.40;;
19965;SDS011;10144;50.874;4.762;2023-04-25T15:11:41;10.67;;;1.37;;
19965;SDS011;10144;50.874;4.762;2023-04-25T15:14:07;10.43;;;1.83;;
19965;SDS011;10144;50.874;4.762;2023-04-25T15:16:33;6.03;;;1.27;;
19965;SDS011;10144;50.874;4.762;2023-04-25T15:18:58;6.77;;;1.40;;
19965;SDS011;10144;50.874;4.762;2023-04-25T15:21:24;8.90;;;1.57;;
19965;SDS011;10144;50.874;4.762;2023-04-25T15:23:52;5.57;;;1.43;;
19965;SDS011;10144;50.874;4.762;2023-04-25T15:26:18;5.60;;;1.50;;
19965;SDS011;10144;50.874;4.762;2023-04-25T15:28:43;7.33;;;1.50;;
19965;SDS011;10144;50.874;4.762;2023-04-25T15:31:09;8.03;;;1.30;;
19965;SDS011;10144;50.874;4.762;2023-04-25T15:33:36;5.37;;;1.23;;
19965;SDS011;10144;50.874;4.762;2023-04-25T15:36:02;5.07;;;1.33;;
19965;SDS011;10144;50.874;4.762;2023-04-25T15:38:28;4.80;;;1.23;;
19965;SDS011;10144;50.874;4.762;2023-04-25T15:40:53;6.27;;;1.27;;
19965;SDS011;10144;50.874;4.762;2023-04-25T15:43:19;6.00;;;1.30;;
19965;SDS011;10144;50.874;4.762;2023-04-25T15:45:45;6.53;;;1.43;;
19965;SDS011;10144;50.874;4.762;2023-04-25T15:48:10;7.00;;;1.70;;
19965;SDS011;10144;50.874;4.762;2023-04-25T15:50:36;8.67;;;1.43;;
19965;SDS011;10144;50.874;4.762;2023-04-25T15:53:02;6.43;;;1.60;;
19965;SDS011;10144;50.874;4.762;2023-04-25T15:55:27;9.40;;;1.60;;
19965;SDS011;10144;50.874;4.762;2023-04-25T15:57:53;8.97;;;1.30;;
19965;SDS011;10144;50.874;4.762;2023-04-25T16:00:19;10.43;;;1.60;;
19965;SDS011;10144;50.874;4.762;2023-04-25T16:02:46;10.13;;;1.63;;
19965;SDS011;10144;50.874;4.762;2023-04-25T16:05:15;5.73;;;1.47;;
19965;SDS011;10144;50.874;4.762;2023-04-25T16:07:41;9.13;;;1.30;;
19965;SDS011;10144;50.874;4.762;2023-04-25T16:10:08;5.57;;;1.20;;
19965;SDS011;10144;50.874;4.762;2023-04-25T16:12:35;8.50;;;1.63;;
19965;SDS011;10144;50.874;4.762;2023-04-25T16:15:02;6.87;;;1.50;;
19965;SDS011;10144;50.874;4.762;2023-04-25T16:17:28;3.43;;;1.13;;
19965;SDS011;10144;50.874;4.762;2023-04-25T16:19:57;5.87;;;1.40;;
19965;SDS011;10144;50.874;4.762;2023-04-25T16:22:23;4.97;;;1.40;;
19965;SDS011;10144;50.874;4.762;2023-04-25T16:24:49;4.37;;;1.57;;
19965;SDS011;10144;50.874;4.762;2023-04-25T16:27:15;5.90;;;1.50;;
19965;SDS011;10144;50.874;4.762;2023-04-25T16:29:40;6.50;;;1.40;;
19965;SDS011;10144;50.874;4.762;2023-04-25T16:32:06;8.80;;;1.60;;
19965;SDS011;10144;50.874;4.762;2023-04-25T16:34:32;9.80;;;1.70;;
19965;SDS011;10144;50.874;4.762;2023-04-25T16:36:58;3.73;;;1.20;;
19965;SDS011;10144;50.874;4.762;2023-04-25T16:39:23;4.33;;;1.30;;
19965;SDS011;10144;50.874;4.762;2023-04-25T16:41:49;5.13;;;1.30;;